createdAt,value
2018-09-26T00:00:19.765Z,26.4
2018-09-26T00:01:10.053Z,26.4
2018-09-26T00:01:59.567Z,26.4
2018-09-26T00:02:49.588Z,26.4
2018-09-26T00:03:39.986Z,26.4
2018-09-26T00:04:29.467Z,26.4
2018-09-26T00:05:19.832Z,26.4
2018-09-26T00:06:10.153Z,26.4
2018-09-26T00:07:00.230Z,26.4
2018-09-26T00:07:50.530Z,26.4
2018-09-26T00:08:40.057Z,26.4
2018-09-26T00:09:30.676Z,26.4
2018-09-26T00:10:20.135Z,26.4
2018-09-26T00:11:10.280Z,26.4
2018-09-26T00:12:00.647Z,26.4
2018-09-26T00:12:50.597Z,26.4
2018-09-26T00:13:40.422Z,26.4
2018-09-26T00:14:30.727Z,26.4
2018-09-26T00:15:21.117Z,26.4
2018-09-26T00:16:10.919Z,26.4
2018-09-26T00:17:00.357Z,26.4
2018-09-26T00:17:50.962Z,26.4
2018-09-26T00:18:40.882Z,26.4
2018-09-26T00:19:31.402Z,26.4
2018-09-26T00:20:20.339Z,26.4
2018-09-26T00:21:11.301Z,26.4
2018-09-26T00:22:01.071Z,26.4
2018-09-26T00:22:51.123Z,26.4
2018-09-26T00:23:41.371Z,26.4
2018-09-26T00:24:30.944Z,26.4
2018-09-26T00:25:22.138Z,26.4
2018-09-26T00:26:11.396Z,26.4
2018-09-26T00:27:01.939Z,26.4
2018-09-26T00:27:51.156Z,26.4
2018-09-26T00:28:42.375Z,26.3
2018-09-26T00:29:32.125Z,26.3
2018-09-26T00:30:22.219Z,26.3
2018-09-26T00:31:12.016Z,26.4
2018-09-26T00:32:02.056Z,26.3
2018-09-26T00:32:51.838Z,26.4
2018-09-26T00:33:42.468Z,26.4
2018-09-26T00:34:32.253Z,26.3
2018-09-26T00:35:22.314Z,26.4
2018-09-26T00:36:13.559Z,26.3
2018-09-26T00:55:25.679Z,26.3
2018-09-26T00:56:16.170Z,26.3
2018-09-26T00:57:05.499Z,26.3
2018-09-26T00:57:56.112Z,26.3
2018-09-26T00:58:45.287Z,26.3
2018-09-26T00:59:35.936Z,26.3
2018-09-26T01:00:27.264Z,26.3
2018-09-26T01:01:16.544Z,26.3
2018-09-26T01:02:06.107Z,26.3
2018-09-26T01:02:56.461Z,26.3
2018-09-26T01:03:46.772Z,26.3
2018-09-26T01:04:36.534Z,26.3
2018-09-26T01:05:27.246Z,26.3
2018-09-26T01:06:16.410Z,26.3
2018-09-26T01:07:06.451Z,26.3
2018-09-26T01:07:57.073Z,26.3
2018-09-26T01:08:46.869Z,26.3
2018-09-26T01:09:36.929Z,26.3
2018-09-26T01:10:26.623Z,26.3
2018-09-26T01:11:17.086Z,26.3
2018-09-26T01:12:06.928Z,26.3
2018-09-26T01:12:56.646Z,26.3
2018-09-26T01:13:46.921Z,26.3
2018-09-26T01:14:37.274Z,26.3
2018-09-26T01:15:27.864Z,26.3
2018-09-26T01:16:18.059Z,26.3
2018-09-26T01:17:07.496Z,26.3
2018-09-26T01:17:57.281Z,26.3
2018-09-26T01:18:47.618Z,26.3
2018-09-26T01:19:37.948Z,26.3
2018-09-26T01:20:27.746Z,26.3
2018-09-26T01:21:16.891Z,26.3
2018-09-26T01:22:08.141Z,26.3
2018-09-26T01:22:57.603Z,26.3
2018-09-26T01:23:48.233Z,26.3
2018-09-26T01:24:38.283Z,26.3
2018-09-26T01:25:28.396Z,26.3
2018-09-26T01:26:18.543Z,26.3
2018-09-26T01:27:08.188Z,26.3
2018-09-26T01:27:58.345Z,26.3
2018-09-26T01:28:48.045Z,26.3
2018-09-26T01:29:38.670Z,26.3
2018-09-26T01:30:28.205Z,26.3
2018-09-26T01:31:19.027Z,26.3
2018-09-26T01:32:08.833Z,26.3
2018-09-26T01:32:58.091Z,26.3
2018-09-26T01:33:48.724Z,26.3
2018-09-26T01:34:38.465Z,26.3
2018-09-26T01:35:28.818Z,26.3
2018-09-26T01:36:19.171Z,26.3
2018-09-26T01:37:09.287Z,26.2
2018-09-26T01:37:58.735Z,26.3
2018-09-26T01:38:49.080Z,26.3
2018-09-26T01:39:39.148Z,26.3
2018-09-26T01:40:28.652Z,26.3
2018-09-26T01:41:18.582Z,26.3
2018-09-26T01:42:09.582Z,26.3
2018-09-26T01:42:59.675Z,26.3
2018-09-26T01:43:49.452Z,26.3
2018-09-26T01:44:38.964Z,26.2
2018-09-26T01:45:29.007Z,26.2
2018-09-26T01:46:19.329Z,26.2
2018-09-26T01:47:09.639Z,26.2
2018-09-26T01:47:58.974Z,26.2
2018-09-26T01:48:49.863Z,26.3
2018-09-26T01:49:39.879Z,26.3
2018-09-26T01:50:29.930Z,26.2
2018-09-26T01:51:19.721Z,26.2
2018-09-26T01:52:09.934Z,26.2
2018-09-26T01:53:00.126Z,26.2
2018-09-26T01:53:50.325Z,26.2
2018-09-26T01:54:40.232Z,26.3
2018-09-26T01:55:30.619Z,26.2
2018-09-26T01:56:19.540Z,26.2
2018-09-26T01:57:10.217Z,26.2
2018-09-26T01:58:00.837Z,26.2
2018-09-26T01:58:50.569Z,26.2
2018-09-26T01:59:40.628Z,26.2
2018-09-26T02:00:30.672Z,26.2
2018-09-26T02:01:21.038Z,26.2
2018-09-26T02:02:10.535Z,26.2
2018-09-26T02:03:01.135Z,26.2
2018-09-26T02:03:50.935Z,26.2
2018-09-26T02:04:40.432Z,26.2
2018-09-26T02:05:30.803Z,26.2
2018-09-26T02:06:20.840Z,26.2
2018-09-26T02:07:11.426Z,26.2
2018-09-26T02:08:01.511Z,26.2
2018-09-26T02:08:51.022Z,26.2
2018-09-26T02:09:41.348Z,26.2
2018-09-26T02:10:31.433Z,26.2
2018-09-26T02:11:20.375Z,26.2
2018-09-26T02:12:11.858Z,26.2
2018-09-26T02:13:01.302Z,26.2
2018-09-26T02:13:52.160Z,26.2
2018-09-26T02:14:41.996Z,26.2
2018-09-26T02:15:32.081Z,26.2
2018-09-26T02:16:21.799Z,26.2
2018-09-26T02:17:11.920Z,26.2
2018-09-26T02:18:02.041Z,26.1
2018-09-26T02:18:52.090Z,26.1
2018-09-26T02:19:42.109Z,26.2
2018-09-26T02:20:31.902Z,26.2
2018-09-26T02:21:22.210Z,26.1
2018-09-26T02:22:12.574Z,26.1
2018-09-26T02:23:01.810Z,26.2
2018-09-26T02:23:52.724Z,26.2
2018-09-26T02:24:42.759Z,26.1
2018-09-26T02:25:32.222Z,26.1
2018-09-26T02:26:22.880Z,26.2
2018-09-26T02:27:12.956Z,26.1
2018-09-26T02:28:02.729Z,26.1
2018-09-26T02:28:53.407Z,26.1
2018-09-26T02:29:43.091Z,26.1
2018-09-26T02:30:32.662Z,26.1
2018-09-26T02:31:22.700Z,26.1
2018-09-26T02:32:12.171Z,26.1
2018-09-26T02:33:03.161Z,26.1
2018-09-26T02:33:53.199Z,26.1
2018-09-26T02:34:43.209Z,26.1
2018-09-26T02:35:33.559Z,26.1
2018-09-26T02:36:23.036Z,26.1
2018-09-26T02:37:13.660Z,26.1
2018-09-26T02:38:03.716Z,26.1
2018-09-26T02:38:53.498Z,26.1
2018-09-26T02:39:43.919Z,26.1
2018-09-26T02:40:33.632Z,26.1
2018-09-26T02:41:23.750Z,26.1
2018-09-26T02:42:13.471Z,26.1
2018-09-26T02:43:02.686Z,26.1
2018-09-26T02:43:54.208Z,26.1
2018-09-26T02:44:44.493Z,26.1
2018-09-26T02:45:34.320Z,26.1
2018-09-26T02:46:24.353Z,26.1
2018-09-26T02:47:13.865Z,26.1
2018-09-26T02:48:04.476Z,26.1
2018-09-26T02:48:54.821Z,26.1
2018-09-26T02:49:44.380Z,26.1
2018-09-26T02:50:34.656Z,26.1
2018-09-26T02:51:24.423Z,26.1
2018-09-26T02:52:14.485Z,26.1
2018-09-26T02:53:04.833Z,26.1
2018-09-26T02:53:54.932Z,26.1
2018-09-26T02:54:44.420Z,26.1
2018-09-26T02:55:34.671Z,26.1
2018-09-26T02:56:24.822Z,26.1
2018-09-26T02:57:15.192Z,26.1
2018-09-26T02:58:04.722Z,26.1
2018-09-26T02:58:54.430Z,26.1
2018-09-26T02:59:45.113Z,26.1
2018-09-26T03:00:35.183Z,26.1
2018-09-26T03:01:24.602Z,26.1
2018-09-26T03:02:15.529Z,26.1
2018-09-26T03:03:05.002Z,26.1
2018-09-26T03:03:56.270Z,26.1
2018-09-26T03:04:45.712Z,26.1
2018-09-26T03:05:35.792Z,26.1
2018-09-26T03:06:25.002Z,26.1
2018-09-26T03:07:15.047Z,26.1
2018-09-26T03:08:05.396Z,26.1
2018-09-26T03:08:55.462Z,26.1
2018-09-26T03:09:46.039Z,26.1
2018-09-26T03:10:35.342Z,26.1
2018-09-26T03:11:25.641Z,26.1
2018-09-26T03:12:15.398Z,26.1
2018-09-26T03:13:06.058Z,26.1
2018-09-26T03:13:56.634Z,26.1
2018-09-26T03:14:46.472Z,26.1
2018-09-26T03:15:36.614Z,26.1
2018-09-26T03:16:25.750Z,26.1
2018-09-26T03:17:15.784Z,26.1
2018-09-26T03:18:06.117Z,26.1
2018-09-26T03:18:56.729Z,26.1
2018-09-26T03:19:46.590Z,26.1
2018-09-26T03:20:36.644Z,26.1
2018-09-26T03:21:26.647Z,26.1
2018-09-26T03:22:17.011Z,26.1
2018-09-26T03:23:06.479Z,26.1
2018-09-26T03:23:56.859Z,26.1
2018-09-26T03:24:47.319Z,26.1
2018-09-26T03:25:37.243Z,26.1
2018-09-26T03:26:27.017Z,26.1
2018-09-26T03:27:17.353Z,26.1
2018-09-26T03:28:07.443Z,26.1
2018-09-26T03:28:56.451Z,26
2018-09-26T03:29:46.796Z,26.1
2018-09-26T03:30:36.601Z,26.1
2018-09-26T03:31:26.636Z,26.1
2018-09-26T03:32:16.774Z,26.1
2018-09-26T03:33:06.748Z,26.1
2018-09-26T03:33:57.026Z,26
2018-09-26T03:34:47.052Z,26
2018-09-26T03:35:37.930Z,26
2018-09-26T03:36:28.258Z,26
2018-09-26T03:37:18.122Z,26.1
2018-09-26T03:38:07.897Z,26
2018-09-26T03:38:57.955Z,26
2018-09-26T03:39:47.728Z,26
2018-09-26T03:40:38.342Z,26
2018-09-26T03:41:28.404Z,26
2018-09-26T03:42:17.927Z,26
2018-09-26T03:43:07.969Z,26
2018-09-26T03:43:58.601Z,26
2018-09-26T03:44:48.079Z,26
2018-09-26T03:45:38.139Z,26
2018-09-26T03:46:28.795Z,26
2018-09-26T03:47:18.863Z,26
2018-09-26T03:48:08.894Z,26
2018-09-26T03:48:58.376Z,26
2018-09-26T03:49:48.485Z,26
2018-09-26T03:50:39.336Z,26
2018-09-26T03:51:28.833Z,26
2018-09-26T03:52:18.652Z,26
2018-09-26T03:53:08.978Z,26
2018-09-26T03:53:59.031Z,26
2018-09-26T03:54:48.801Z,26
2018-09-26T03:55:39.377Z,26
2018-09-26T03:56:29.599Z,26
2018-09-26T03:57:19.590Z,26
2018-09-26T03:58:09.619Z,26
2018-09-26T03:58:59.423Z,26
2018-09-26T03:59:49.440Z,26
2018-09-26T04:00:38.965Z,26
2018-09-26T04:01:29.824Z,26
2018-09-26T04:02:19.971Z,26
2018-09-26T04:03:09.744Z,26
2018-09-26T04:04:00.131Z,26
2018-09-26T04:04:50.175Z,26
2018-09-26T04:05:39.931Z,26
2018-09-26T04:06:30.062Z,26
2018-09-26T04:07:20.005Z,25.9
2018-09-26T04:08:09.785Z,25.9
2018-09-26T04:09:00.228Z,25.9
2018-09-26T04:09:50.210Z,26
2018-09-26T04:10:39.986Z,25.9
2018-09-26T04:11:30.036Z,25.9
2018-09-26T04:12:20.115Z,25.9
2018-09-26T04:13:10.895Z,25.9
2018-09-26T04:14:00.806Z,25.9
2018-09-26T04:14:50.593Z,26
2018-09-26T04:15:41.377Z,25.9
2018-09-26T04:16:30.714Z,25.9
2018-09-26T04:17:20.485Z,25.9
2018-09-26T04:18:10.835Z,25.9
2018-09-26T04:19:00.878Z,25.9
2018-09-26T04:19:51.285Z,25.9
2018-09-26T04:20:41.037Z,25.9
2018-09-26T04:21:30.208Z,26
2018-09-26T04:22:21.455Z,25.9
2018-09-26T04:23:11.162Z,25.9
2018-09-26T04:24:00.995Z,25.9
2018-09-26T04:24:51.020Z,25.9
2018-09-26T04:25:41.627Z,25.9
2018-09-26T04:26:32.918Z,25.9
2018-09-26T04:27:22.152Z,25.9
2018-09-26T04:28:11.020Z,25.9
2018-09-26T04:29:01.687Z,25.9
2018-09-26T04:29:52.126Z,25.9
2018-09-26T04:30:42.012Z,25.9
2018-09-26T04:31:32.359Z,25.9
2018-09-26T04:32:21.584Z,25.9
2018-09-26T04:33:14.276Z,25.9
2018-09-26T04:34:02.781Z,25.9
2018-09-26T04:34:52.341Z,25.9
2018-09-26T04:35:42.393Z,25.9
2018-09-26T04:36:32.721Z,25.9
2018-09-26T04:37:22.526Z,25.9
2018-09-26T04:38:12.015Z,25.9
2018-09-26T04:39:02.158Z,25.9
2018-09-26T04:39:52.652Z,25.9
2018-09-26T04:40:42.179Z,25.9
2018-09-26T04:41:33.081Z,25.9
2018-09-26T04:42:22.872Z,25.9
2018-09-26T04:43:13.315Z,25.9
2018-09-26T04:44:02.444Z,25.9
2018-09-26T04:44:52.806Z,25.9
2018-09-26T04:45:42.831Z,25.9
2018-09-26T04:46:33.205Z,25.9
2018-09-26T04:47:22.988Z,25.9
2018-09-26T04:48:13.294Z,25.9
2018-09-26T04:49:03.113Z,25.9
2018-09-26T04:49:53.463Z,25.9
2018-09-26T04:50:43.489Z,25.9
2018-09-26T04:51:33.522Z,25.9
2018-09-26T04:52:23.008Z,25.9
2018-09-26T04:53:13.908Z,25.9
2018-09-26T04:54:03.798Z,25.9
2018-09-26T04:54:53.505Z,25.9
2018-09-26T04:55:43.830Z,25.9
2018-09-26T04:56:33.650Z,25.9
2018-09-26T04:57:24.223Z,25.9
2018-09-26T04:58:14.227Z,25.9
2018-09-26T04:59:03.848Z,25.9
2018-09-26T04:59:53.300Z,25.9
2018-09-26T05:00:43.751Z,25.9
2018-09-26T05:01:33.986Z,25.9
2018-09-26T05:02:23.589Z,25.9
2018-09-26T05:03:13.617Z,25.9
2018-09-26T05:04:03.683Z,25.9
2018-09-26T05:04:53.540Z,25.9
2018-09-26T05:05:43.860Z,25.9
2018-09-26T05:06:33.567Z,25.9
2018-09-26T05:07:24.412Z,25.9
2018-09-26T05:24:16.598Z,25.8
2018-09-26T05:25:06.514Z,25.8
2018-09-26T05:25:56.092Z,25.8
2018-09-26T05:26:45.816Z,25.9
2018-09-26T05:27:36.134Z,25.9
2018-09-26T05:28:26.225Z,25.9
2018-09-26T05:29:16.582Z,25.8
2018-09-26T05:30:05.761Z,25.8
2018-09-26T05:30:56.406Z,25.8
2018-09-26T05:31:46.743Z,25.8
2018-09-26T05:32:36.791Z,25.8
2018-09-26T05:33:26.848Z,25.8
2018-09-26T05:34:16.699Z,25.8
2018-09-26T05:35:07.249Z,25.8
2018-09-26T05:35:56.703Z,25.9
2018-09-26T05:36:47.428Z,25.8
2018-09-26T05:37:37.445Z,25.8
2018-09-26T05:38:26.963Z,25.8
2018-09-26T05:39:17.267Z,25.8
2018-09-26T05:40:07.351Z,25.8
2018-09-26T05:40:57.075Z,25.8
2018-09-26T05:41:48.019Z,25.8
2018-09-26T05:42:37.495Z,25.8
2018-09-26T05:43:27.850Z,25.8
2018-09-26T05:44:16.812Z,25.8
2018-09-26T05:45:07.768Z,25.8
2018-09-26T05:45:57.831Z,25.8
2018-09-26T05:46:48.262Z,25.8
2018-09-26T05:47:38.198Z,25.8
2018-09-26T05:48:27.697Z,25.8
2018-09-26T05:49:18.321Z,25.8
2018-09-26T05:50:07.950Z,25.8
2018-09-26T05:50:58.497Z,25.8
2018-09-26T05:51:47.653Z,25.8
2018-09-26T05:52:38.532Z,25.8
2018-09-26T05:53:28.945Z,25.8
2018-09-26T05:54:18.362Z,25.8
2018-09-26T05:55:08.463Z,25.8
2018-09-26T05:55:58.712Z,25.8
2018-09-26T05:56:48.843Z,25.8
2018-09-26T05:57:38.655Z,25.8
2018-09-26T05:58:27.852Z,25.8
2018-09-26T05:59:19.540Z,25.8
2018-09-26T06:00:09.169Z,25.8
2018-09-26T06:00:59.874Z,25.8
2018-09-26T06:01:49.694Z,25.8
2018-09-26T06:02:39.307Z,25.8
2018-09-26T06:03:28.774Z,25.8
2018-09-26T06:04:19.074Z,25.8
2018-09-26T06:05:08.922Z,25.8
2018-09-26T06:05:59.496Z,25.8
2018-09-26T06:06:49.064Z,25.8
2018-09-26T06:07:39.082Z,25.8
2018-09-26T06:08:28.641Z,25.8
2018-09-26T06:09:19.461Z,25.8
2018-09-26T06:10:09.519Z,25.8
2018-09-26T06:10:59.329Z,25.8
2018-09-26T06:11:49.677Z,25.8
2018-09-26T06:12:40.113Z,25.8
2018-09-26T06:13:29.927Z,25.8
2018-09-26T06:14:20.319Z,25.8
2018-09-26T06:15:10.772Z,25.8
2018-09-26T06:16:00.754Z,25.8
2018-09-26T06:16:50.688Z,25.8
2018-09-26T06:17:40.172Z,25.8
2018-09-26T06:18:30.440Z,25.8
2018-09-26T06:19:19.903Z,25.8
2018-09-26T06:20:09.724Z,25.8
2018-09-26T06:20:59.172Z,25.8
2018-09-26T06:21:50.917Z,25.8
2018-09-26T06:22:40.461Z,25.8
2018-09-26T06:23:30.209Z,25.8
2018-09-26T06:24:20.875Z,25.8
2018-09-26T06:25:10.670Z,25.8
2018-09-26T06:26:00.497Z,25.8
2018-09-26T06:26:50.255Z,25.8
2018-09-26T06:27:41.100Z,25.8
2018-09-26T06:28:30.064Z,25.8
2018-09-26T06:29:21.219Z,25.8
2018-09-26T06:30:11.099Z,25.8
2018-09-26T06:31:00.845Z,25.7
2018-09-26T06:31:50.890Z,25.8
2018-09-26T06:32:41.440Z,25.8
2018-09-26T06:33:31.532Z,25.8
2018-09-26T06:34:21.604Z,25.8
2018-09-26T06:35:11.274Z,25.8
2018-09-26T06:36:01.450Z,25.8
2018-09-26T06:36:51.231Z,25.7
2018-09-26T06:37:41.309Z,25.7
2018-09-26T06:38:31.596Z,25.8
2018-09-26T06:39:21.993Z,25.7
2018-09-26T06:40:11.746Z,25.7
2018-09-26T06:41:01.512Z,25.7
2018-09-26T06:41:51.908Z,25.7
2018-09-26T06:42:41.968Z,25.7
2018-09-26T06:43:31.736Z,25.7
2018-09-26T06:44:22.024Z,25.7
2018-09-26T06:45:12.374Z,25.7
2018-09-26T06:46:02.133Z,25.7
2018-09-26T06:46:52.547Z,25.7
2018-09-26T06:47:42.703Z,25.7
2018-09-26T06:48:31.804Z,25.7
2018-09-26T06:49:22.380Z,25.7
2018-09-26T06:50:12.511Z,25.7
2018-09-26T06:51:02.552Z,25.7
2018-09-26T06:51:52.317Z,25.7
2018-09-26T06:52:42.976Z,25.7
2018-09-26T06:53:33.016Z,25.7
2018-09-26T06:54:22.795Z,25.7
2018-09-26T06:55:13.079Z,25.7
2018-09-26T06:56:02.880Z,25.7
2018-09-26T06:56:52.731Z,25.7
2018-09-26T06:57:43.108Z,25.7
2018-09-26T06:58:33.036Z,25.7
2018-09-26T06:59:23.426Z,25.7
2018-09-26T07:00:13.821Z,25.7
2018-09-26T07:01:03.524Z,25.7
2018-09-26T07:01:53.048Z,25.7
2018-09-26T07:02:43.176Z,25.7
2018-09-26T07:03:33.453Z,25.7
2018-09-26T07:04:24.023Z,25.7
2018-09-26T07:05:13.613Z,25.7
2018-09-26T07:06:03.623Z,25.7
2018-09-26T07:06:54.018Z,25.7
2018-09-26T07:07:43.727Z,25.7
2018-09-26T07:08:33.542Z,25.7
2018-09-26T07:09:23.585Z,25.7
2018-09-26T07:10:14.175Z,25.7
2018-09-26T07:11:04.296Z,25.7
2018-09-26T07:11:53.787Z,25.7
2018-09-26T07:12:44.378Z,25.7
2018-09-26T07:13:34.222Z,25.7
2018-09-26T07:14:23.978Z,25.7
2018-09-26T07:15:14.625Z,25.7
2018-09-26T07:16:04.624Z,25.7
2018-09-26T07:16:54.462Z,25.6
2018-09-26T07:17:45.330Z,25.7
2018-09-26T07:18:34.830Z,25.7
2018-09-26T07:19:24.307Z,25.7
2018-09-26T07:20:14.390Z,25.7
2018-09-26T07:21:05.067Z,25.6
2018-09-26T07:21:54.529Z,25.6
2018-09-26T07:22:45.452Z,25.6
2018-09-26T07:23:34.965Z,25.7
2018-09-26T07:24:24.381Z,25.6
2018-09-26T07:25:15.009Z,25.6
2018-09-26T07:26:04.557Z,25.6
2018-09-26T07:26:54.901Z,25.6
2018-09-26T07:27:45.514Z,25.6
2018-09-26T07:28:35.328Z,25.6
2018-09-26T07:29:25.040Z,25.6
2018-09-26T07:30:15.641Z,25.6
2018-09-26T07:31:05.737Z,25.6
2018-09-26T07:31:55.558Z,25.6
2018-09-26T07:32:45.649Z,25.6
2018-09-26T07:33:35.919Z,25.6
2018-09-26T07:34:25.946Z,25.6
2018-09-26T07:35:16.051Z,25.6
2018-09-26T07:36:05.575Z,25.6
2018-09-26T07:36:56.158Z,25.6
2018-09-26T07:37:45.666Z,25.6
2018-09-26T07:38:36.094Z,25.6
2018-09-26T07:39:26.057Z,25.6
2018-09-26T07:40:16.198Z,25.6
2018-09-26T07:41:05.630Z,25.6
2018-09-26T07:41:56.552Z,25.6
2018-09-26T07:42:45.208Z,25.6
2018-09-26T07:43:36.436Z,25.6
2018-09-26T07:44:25.686Z,25.6
2018-09-26T07:45:15.642Z,25.6
2018-09-26T07:46:05.466Z,25.6
2018-09-26T07:46:56.416Z,25.6
2018-09-26T07:47:46.655Z,25.6
2018-09-26T07:48:36.044Z,25.6
2018-09-26T07:49:26.086Z,25.6
2018-09-26T07:50:15.788Z,25.6
2018-09-26T07:51:06.513Z,25.6
2018-09-26T07:51:56.540Z,25.6
2018-09-26T07:52:46.277Z,25.6
2018-09-26T07:53:36.361Z,25.6
2018-09-26T07:54:26.305Z,25.6
2018-09-26T07:55:16.821Z,25.6
2018-09-26T07:56:06.538Z,25.6
2018-09-26T07:56:56.547Z,25.6
2018-09-26T07:57:47.466Z,25.6
2018-09-26T07:58:37.305Z,25.6
2018-09-26T07:59:27.892Z,25.6
2018-09-26T08:00:17.129Z,25.6
2018-09-26T08:01:07.700Z,25.6
2018-09-26T08:01:57.198Z,25.6
2018-09-26T08:02:47.588Z,25.6
2018-09-26T08:03:37.295Z,25.6
2018-09-26T08:04:28.235Z,25.6
2018-09-26T08:05:17.684Z,25.6
2018-09-26T08:06:08.482Z,25.6
2018-09-26T08:06:57.541Z,25.6
2018-09-26T08:07:47.422Z,25.6
2018-09-26T08:08:37.469Z,25.6
2018-09-26T08:09:26.970Z,25.6
2018-09-26T08:10:17.864Z,25.6
2018-09-26T08:11:08.334Z,25.6
2018-09-26T08:11:58.942Z,25.6
2018-09-26T08:12:48.541Z,25.6
2018-09-26T08:13:38.852Z,25.6
2018-09-26T08:14:28.934Z,25.6
2018-09-26T08:15:18.204Z,25.6
2018-09-26T08:16:08.237Z,25.6
2018-09-26T08:16:58.839Z,25.6
2018-09-26T08:17:48.891Z,25.6
2018-09-26T08:18:39.963Z,25.6
2018-09-26T08:19:29.116Z,25.6
2018-09-26T08:20:19.374Z,25.6
2018-09-26T08:21:08.906Z,25.6
2018-09-26T08:21:58.996Z,25.6
2018-09-26T08:22:49.296Z,25.6
2018-09-26T08:23:39.600Z,25.6
2018-09-26T08:24:29.423Z,25.6
2018-09-26T08:25:18.854Z,25.6
2018-09-26T08:26:09.250Z,25.6
2018-09-26T08:26:59.858Z,25.6
2018-09-26T08:27:49.650Z,25.6
2018-09-26T08:28:39.419Z,25.6
2018-09-26T08:29:29.251Z,25.6
2018-09-26T08:30:19.881Z,25.6
2018-09-26T08:31:09.653Z,25.6
2018-09-26T08:31:59.958Z,25.6
2018-09-26T08:32:50.009Z,25.5
2018-09-26T08:33:40.083Z,25.6
2018-09-26T08:34:29.911Z,25.6
2018-09-26T08:35:20.470Z,25.6
2018-09-26T08:36:10.332Z,25.6
2018-09-26T08:37:00.585Z,25.6
2018-09-26T08:37:49.888Z,25.6
2018-09-26T08:38:40.249Z,25.6
2018-09-26T08:39:30.780Z,25.5
2018-09-26T08:40:20.863Z,25.5
2018-09-26T08:41:11.187Z,25.5
2018-09-26T08:42:00.421Z,25.5
2018-09-26T08:42:50.309Z,25.5
2018-09-26T08:43:40.804Z,25.5
2018-09-26T08:44:30.914Z,25.5
2018-09-26T08:45:21.204Z,25.5
2018-09-26T08:46:10.882Z,25.5
2018-09-26T08:47:01.318Z,25.5
2018-09-26T08:47:50.832Z,25.5
2018-09-26T08:48:41.467Z,25.5
2018-09-26T08:49:31.026Z,25.5
2018-09-26T08:50:21.400Z,25.5
2018-09-26T08:51:11.425Z,25.5
2018-09-26T08:52:01.421Z,25.5
2018-09-26T08:52:51.527Z,25.5
2018-09-26T08:53:42.408Z,25.5
2018-09-26T08:54:32.016Z,25.5
2018-09-26T08:55:21.919Z,25.5
2018-09-26T08:56:12.094Z,25.5
2018-09-26T08:57:01.526Z,25.5
2018-09-26T08:57:51.588Z,25.5
2018-09-26T08:58:41.888Z,25.5
2018-09-26T08:59:32.333Z,25.5
2018-09-26T09:00:21.871Z,25.5
2018-09-26T09:01:11.561Z,25.5
2018-09-26T09:02:01.854Z,25.5
2018-09-26T09:02:51.951Z,25.5
2018-09-26T09:03:42.268Z,25.5
2018-09-26T09:04:32.574Z,25.5
2018-09-26T09:05:22.642Z,25.5
2018-09-26T09:06:12.642Z,25.5
2018-09-26T09:07:02.262Z,25.5
2018-09-26T09:07:52.852Z,25.5
2018-09-26T09:08:42.357Z,25.5
2018-09-26T09:09:33.063Z,25.5
2018-09-26T09:10:22.811Z,25.4
2018-09-26T09:11:12.841Z,25.5
2018-09-26T09:12:02.335Z,25.5
2018-09-26T09:12:52.978Z,25.5
2018-09-26T09:13:43.260Z,25.5
2018-09-26T09:14:35.380Z,25.5
2018-09-26T09:15:23.793Z,25.5
2018-09-26T09:16:12.951Z,25.5
2018-09-26T09:17:02.788Z,25.5
2018-09-26T09:17:52.787Z,25.4
2018-09-26T09:18:43.196Z,25.4
2018-09-26T09:19:33.565Z,25.5
2018-09-26T09:20:23.973Z,25.5
2018-09-26T09:21:13.260Z,25.4
2018-09-26T09:22:03.354Z,25.4
2018-09-26T09:38:51.380Z,25.4
2018-09-26T09:39:41.096Z,25.4
2018-09-26T09:40:31.099Z,25.4
2018-09-26T09:41:21.162Z,25.4
2018-09-26T09:42:10.853Z,25.4
2018-09-26T09:43:01.006Z,25.4
2018-09-26T09:43:51.851Z,25.4
2018-09-26T09:44:41.716Z,25.4
2018-09-26T09:45:31.146Z,25.4
2018-09-26T09:46:21.533Z,25.4
2018-09-26T09:47:11.088Z,25.4
2018-09-26T09:48:02.188Z,25.4
2018-09-26T09:48:52.208Z,25.4
2018-09-26T09:49:41.696Z,25.4
2018-09-26T09:50:31.813Z,25.4
2018-09-26T09:51:22.150Z,25.4
2018-09-26T09:52:11.913Z,25.4
2018-09-26T09:53:02.258Z,25.4
2018-09-26T09:53:52.317Z,25.4
2018-09-26T09:54:41.805Z,25.4
2018-09-26T09:55:32.190Z,25.4
2018-09-26T09:56:22.969Z,25.4
2018-09-26T09:57:11.993Z,25.4
2018-09-26T09:58:02.428Z,25.4
2018-09-26T09:58:52.105Z,25.4
2018-09-26T09:59:42.486Z,25.4
2018-09-26T10:00:31.993Z,25.4
2018-09-26T10:01:22.953Z,25.4
2018-09-26T10:02:13.311Z,25.4
2018-09-26T10:03:03.587Z,25.4
2018-09-26T10:03:53.584Z,25.4
2018-09-26T10:04:43.125Z,25.4
2018-09-26T10:05:32.370Z,25.4
2018-09-26T10:06:22.700Z,25.4
2018-09-26T10:07:13.310Z,25.4
2018-09-26T10:08:02.817Z,25.4
2018-09-26T10:08:53.301Z,25.4
2018-09-26T10:09:43.219Z,25.4
2018-09-26T10:10:32.982Z,25.4
2018-09-26T10:11:23.357Z,25.4
2018-09-26T10:12:13.675Z,25.4
2018-09-26T10:13:03.480Z,25.4
2018-09-26T10:13:53.274Z,25.4
2018-09-26T10:14:43.582Z,25.4
2018-09-26T10:15:34.304Z,25.4
2018-09-26T10:16:23.970Z,25.4
2018-09-26T10:17:13.501Z,25.4
2018-09-26T10:18:03.836Z,25.4
2018-09-26T10:18:53.649Z,25.4
2018-09-26T10:19:44.019Z,25.4
2018-09-26T10:20:34.034Z,25.4
2018-09-26T10:21:24.192Z,25.4
2018-09-26T10:22:14.457Z,25.4
2018-09-26T10:23:03.644Z,25.4
2018-09-26T10:23:54.572Z,25.4
2018-09-26T10:24:44.613Z,25.3
2018-09-26T10:25:34.663Z,25.4
2018-09-26T10:26:25.744Z,25.4
2018-09-26T10:27:14.814Z,25.4
2018-09-26T10:28:04.571Z,25.4
2018-09-26T10:28:54.934Z,25.4
2018-09-26T10:29:44.756Z,25.4
2018-09-26T10:30:34.539Z,25.4
2018-09-26T10:31:25.116Z,25.4
2018-09-26T10:32:15.268Z,25.4
2018-09-26T10:33:05.228Z,25.4
2018-09-26T10:33:55.288Z,25.4
2018-09-26T10:34:44.982Z,25.3
2018-09-26T10:35:35.429Z,25.4
2018-09-26T10:36:25.524Z,25.4
2018-09-26T10:37:15.626Z,25.4
2018-09-26T10:38:05.647Z,25.3
2018-09-26T10:38:55.886Z,25.3
2018-09-26T10:39:45.199Z,25.3
2018-09-26T10:40:35.525Z,25.4
2018-09-26T10:41:25.603Z,25.3
2018-09-26T10:42:15.616Z,25.3
2018-09-26T10:43:05.405Z,25.4
2018-09-26T10:43:55.761Z,25.3
2018-09-26T10:44:46.071Z,25.3
2018-09-26T10:45:35.863Z,25.4
2018-09-26T10:46:26.253Z,25.3
2018-09-26T10:47:15.689Z,25.3
2018-09-26T10:48:06.312Z,25.3
2018-09-26T10:48:56.111Z,25.3
2018-09-26T10:49:46.169Z,25.3
2018-09-26T10:50:36.513Z,25.3
2018-09-26T10:51:26.547Z,25.3
2018-09-26T10:52:16.603Z,25.3
2018-09-26T10:53:05.990Z,25.3
2018-09-26T10:53:56.465Z,25.3
2018-09-26T10:54:46.798Z,25.3
2018-09-26T10:55:37.117Z,25.3
2018-09-26T10:56:26.590Z,25.3
2018-09-26T10:57:16.459Z,25.3
2018-09-26T10:58:07.015Z,25.3
2018-09-26T10:58:56.827Z,25.3
2018-09-26T10:59:46.872Z,25.3
2018-09-26T11:00:37.477Z,25.3
2018-09-26T11:01:27.311Z,25.3
2018-09-26T11:02:18.170Z,25.3
2018-09-26T11:03:06.584Z,25.3
2018-09-26T11:03:56.619Z,25.3
2018-09-26T11:04:47.551Z,25.3
2018-09-26T11:05:37.644Z,25.3
2018-09-26T11:06:27.667Z,25.3
2018-09-26T11:07:16.869Z,25.3
2018-09-26T11:08:08.137Z,25.3
2018-09-26T11:08:57.599Z,25.3
2018-09-26T11:09:47.647Z,25.3
2018-09-26T11:10:37.716Z,25.3
2018-09-26T11:11:27.746Z,25.3
2018-09-26T11:12:18.081Z,25.3
2018-09-26T11:13:08.474Z,25.3
2018-09-26T11:13:57.340Z,25.3
2018-09-26T11:14:47.435Z,25.3
2018-09-26T11:15:38.123Z,25.3
2018-09-26T11:16:28.713Z,25.3
2018-09-26T11:17:18.174Z,25.3
2018-09-26T11:18:08.273Z,25.3
2018-09-26T11:18:59.240Z,25.3
2018-09-26T11:19:48.618Z,25.3
2018-09-26T11:20:39.013Z,25.3
2018-09-26T11:21:28.121Z,25.3
2018-09-26T11:22:19.705Z,25.3
2018-09-26T11:23:08.891Z,25.3
2018-09-26T11:23:58.920Z,25.3
2018-09-26T11:24:48.735Z,25.3
2018-09-26T11:25:38.758Z,25.3
2018-09-26T11:26:29.786Z,25.3
2018-09-26T11:27:19.210Z,25.3
2018-09-26T11:28:09.276Z,25.3
2018-09-26T11:28:59.051Z,25.3
2018-09-26T11:29:49.090Z,25.3
2018-09-26T11:30:39.173Z,25.3
2018-09-26T11:31:29.552Z,25.3
2018-09-26T11:32:20.383Z,25.3
2018-09-26T11:33:09.771Z,25.3
2018-09-26T11:33:59.974Z,25.3
2018-09-26T11:34:49.480Z,25.3
2018-09-26T11:35:39.265Z,25.3
2018-09-26T11:36:29.612Z,25.3
2018-09-26T11:37:19.651Z,25.3
2018-09-26T11:38:10.457Z,25.3
2018-09-26T11:39:00.322Z,25.3
2018-09-26T11:39:50.137Z,25.3
2018-09-26T11:40:40.164Z,25.3
2018-09-26T11:41:30.224Z,25.3
2018-09-26T11:42:20.069Z,25.3
2018-09-26T11:43:10.168Z,25.3
2018-09-26T11:44:00.511Z,25.3
2018-09-26T11:44:51.701Z,25.3
2018-09-26T11:45:40.550Z,25.3
2018-09-26T11:46:30.560Z,25.3
2018-09-26T11:47:19.254Z,25.3
2018-09-26T11:48:09.919Z,25.3
2018-09-26T11:49:00.802Z,25.3
2018-09-26T11:49:50.607Z,25.3
2018-09-26T11:50:40.505Z,25.2
2018-09-26T11:51:30.409Z,25.3
2018-09-26T11:52:20.132Z,25.3
2018-09-26T11:53:11.069Z,25.3
2018-09-26T11:54:01.396Z,25.3
2018-09-26T11:54:50.939Z,25.2
2018-09-26T11:55:40.567Z,25.3
2018-09-26T11:56:31.635Z,25.3
2018-09-26T11:57:20.887Z,25.3
2018-09-26T11:58:11.418Z,25.2
2018-09-26T11:59:00.996Z,25.2